createdAt,value
2022-08-03T00:01:53.122Z,22.40
2022-08-03T00:04:19.851Z,21.00
2022-08-03T00:06:46.611Z,20.40
2022-08-03T00:09:13.355Z,20.90
2022-08-03T00:11:40.377Z,20.20
2022-08-03T00:14:07.968Z,22.10
2022-08-03T00:16:34.693Z,20.30
2022-08-03T00:19:02.508Z,20.80
2022-08-03T00:21:29.346Z,20.40
2022-08-03T00:23:56.857Z,21.50
2022-08-03T00:26:23.667Z,22.80
2022-08-03T00:28:50.565Z,20.60
2022-08-03T00:31:24.240Z,22.90
2022-08-03T00:34:04.497Z,20.50
2022-08-03T00:36:31.269Z,19.70
2022-08-03T00:38:58.011Z,19.70
2022-08-03T00:41:24.860Z,21.10
2022-08-03T00:43:51.725Z,22.60
2022-08-03T00:46:21.910Z,22.60
2022-08-03T00:48:52.607Z,20.90
2022-08-03T00:51:23.461Z,21.50
2022-08-03T00:53:50.672Z,22.80
2022-08-03T00:56:17.739Z,21.40
2022-08-03T00:58:46.148Z,22.80
2022-08-03T01:01:14.083Z,23.30
2022-08-03T01:03:41.690Z,22.50
2022-08-03T01:06:17.832Z,23.20
2022-08-03T01:08:44.416Z,22.70
2022-08-03T01:12:01.205Z,25.10
2022-08-03T01:14:39.438Z,26.20
2022-08-03T01:17:19.811Z,25.80
2022-08-03T01:19:55.765Z,23.50
2022-08-03T01:22:53.436Z,25.30
2022-08-03T01:25:32.767Z,26.80
2022-08-03T01:28:03.505Z,24.40
2022-08-03T01:30:33.511Z,25.30
2022-08-03T01:33:07.653Z,25.60
2022-08-03T01:35:51.918Z,24.20
2022-08-03T01:38:28.312Z,23.80
2022-08-03T01:40:56.564Z,24.30
2022-08-03T01:44:27.698Z,24.70
2022-08-03T01:46:16.486Z,27.60
2022-08-03T01:48:45.911Z,28.00
2022-08-03T01:51:15.258Z,25.00
2022-08-03T01:53:42.754Z,25.20
2022-08-03T01:56:12.864Z,27.10
2022-08-03T01:58:41.705Z,30.60
2022-08-03T02:01:09.678Z,28.90
2022-08-03T02:04:00.005Z,30.00
2022-08-03T02:07:01.375Z,29.50
2022-08-03T02:09:21.564Z,33.20
2022-08-03T02:11:51.020Z,32.70
2022-08-03T02:14:20.918Z,33.30
2022-08-03T02:16:49.277Z,33.40
2022-08-03T02:19:17.671Z,35.10
2022-08-03T02:21:57.305Z,36.30
2022-08-03T02:24:30.356Z,36.70
2022-08-03T02:26:59.930Z,33.70
2022-08-03T02:29:39.069Z,34.30
2022-08-03T02:32:16.539Z,33.10
2022-08-03T02:34:47.326Z,33.10
2022-08-03T02:37:17.565Z,32.80
2022-08-03T02:39:46.311Z,29.90
2022-08-03T02:42:16.072Z,27.30
2022-08-03T02:44:47.884Z,29.70
2022-08-03T02:47:16.588Z,34.10
2022-08-03T02:49:51.478Z,30.00
2022-08-03T02:52:22.772Z,28.60
2022-08-03T02:54:53.395Z,28.00
2022-08-03T02:57:22.728Z,30.90
2022-08-03T02:59:51.752Z,32.00
2022-08-03T03:02:20.074Z,34.50
2022-08-03T03:04:54.975Z,33.90
2022-08-03T03:07:52.053Z,34.50
2022-08-03T03:10:25.835Z,35.60
2022-08-03T03:12:57.721Z,36.80
2022-08-03T03:15:27.339Z,33.00
2022-08-03T03:17:55.118Z,33.20
2022-08-03T03:20:29.281Z,31.90
2022-08-03T03:23:01.225Z,31.90
2022-08-03T03:25:31.293Z,30.40
2022-08-03T03:28:00.025Z,29.10
2022-08-03T03:30:28.411Z,28.70
2022-08-03T03:32:55.285Z,29.70
2022-08-03T03:35:22.421Z,31.20
2022-08-03T03:37:49.163Z,31.50
2022-08-03T03:40:16.074Z,32.10
2022-08-03T03:42:43.172Z,33.10
2022-08-03T03:45:11.596Z,32.10
2022-08-03T03:47:38.480Z,29.50
2022-08-03T03:50:06.592Z,28.30
2022-08-03T03:52:33.865Z,29.60
2022-08-03T03:55:01.497Z,27.60
2022-08-03T03:57:29.601Z,27.90
2022-08-03T03:59:56.567Z,28.50
2022-08-03T04:02:23.630Z,33.30
2022-08-03T04:05:09.653Z,29.90
2022-08-03T04:08:27.072Z,30.00
2022-08-03T04:13:36.442Z,31.70
2022-08-03T04:16:04.692Z,30.80
2022-08-03T04:18:34.627Z,29.30
2022-08-03T04:21:05.453Z,35.70
2022-08-03T04:23:35.446Z,34.70
2022-08-03T04:26:05.891Z,36.20
2022-08-03T04:28:34.242Z,34.90
2022-08-03T04:31:03.911Z,36.30
2022-08-03T04:33:36.576Z,35.80
2022-08-03T04:36:06.775Z,34.70
2022-08-03T04:38:40.084Z,33.60
2022-08-03T04:41:08.842Z,34.90
2022-08-03T04:43:40.088Z,33.50
2022-08-03T04:46:08.445Z,33.10
2022-08-03T04:48:36.949Z,31.40
2022-08-03T04:51:04.171Z,32.50
2022-08-03T04:53:31.181Z,31.20
2022-08-03T04:56:06.966Z,29.00
2022-08-03T05:01:00.614Z,30.40
2022-08-03T05:03:27.490Z,30.50
2022-08-03T05:06:01.619Z,29.50
2022-08-03T05:08:33.354Z,27.20
2022-08-03T05:11:00.554Z,25.80
2022-08-03T05:13:27.475Z,26.60
2022-08-03T05:15:54.197Z,24.80
2022-08-03T05:18:21.038Z,23.50
2022-08-03T05:20:47.829Z,22.40
2022-08-03T05:23:14.778Z,21.90
2022-08-03T05:25:46.124Z,23.10
2022-08-03T05:28:17.051Z,20.40
2022-08-03T05:30:44.149Z,22.40
2022-08-03T05:33:11.001Z,21.40
2022-08-03T05:35:57.301Z,21.40
2022-08-03T05:38:28.587Z,19.80
2022-08-03T05:41:21.756Z,19.60
2022-08-03T05:43:54.505Z,19.00
2022-08-03T05:46:22.791Z,18.90
2022-08-03T05:48:50.221Z,18.40
2022-08-03T05:51:17.184Z,17.70
2022-08-03T05:53:44.631Z,18.60
2022-08-03T05:56:14.698Z,17.30
2022-08-03T05:58:43.984Z,16.80
2022-08-03T06:01:11.182Z,17.00
2022-08-03T06:03:38.059Z,15.00
2022-08-03T06:06:04.941Z,15.80
2022-08-03T06:08:31.739Z,13.30
2022-08-03T06:10:58.631Z,14.10
2022-08-03T06:13:25.379Z,14.60
2022-08-03T06:15:52.124Z,11.60
2022-08-03T06:18:19.479Z,13.00
2022-08-03T06:20:47.233Z,12.20
2022-08-03T06:23:17.892Z,11.60
2022-08-03T06:25:45.659Z,11.90
2022-08-03T06:28:52.658Z,11.40
2022-08-03T06:31:06.557Z,12.00
2022-08-03T06:33:48.535Z,12.60
2022-08-03T06:36:20.888Z,12.50
2022-08-03T06:38:47.706Z,12.40
2022-08-03T06:41:15.603Z,12.70
2022-08-03T06:44:03.051Z,12.30
2022-08-03T06:46:29.569Z,12.20
2022-08-03T06:48:56.388Z,11.90
2022-08-03T06:51:23.334Z,12.70
2022-08-03T06:54:10.418Z,12.00
2022-08-03T06:56:37.667Z,12.00
2022-08-03T06:59:05.279Z,12.00
2022-08-03T07:01:32.964Z,13.00
2022-08-03T07:04:00.753Z,12.20
2022-08-03T07:06:27.579Z,12.30
2022-08-03T07:08:58.971Z,12.60
2022-08-03T07:11:27.990Z,12.80
2022-08-03T07:13:54.708Z,11.70
2022-08-03T07:16:21.900Z,11.10
2022-08-03T07:18:49.097Z,10.60
2022-08-03T07:21:16.467Z,11.00
2022-08-03T07:23:43.282Z,10.00
2022-08-03T07:26:10.129Z,10.00
2022-08-03T07:28:37.125Z,10.60
2022-08-03T07:31:03.887Z,10.40
2022-08-03T07:33:30.716Z,9.80
2022-08-03T07:35:57.605Z,10.30
2022-08-03T07:38:25.163Z,10.40
2022-08-03T07:40:53.479Z,9.20
2022-08-03T07:43:20.535Z,8.80
2022-08-03T07:45:47.727Z,8.20
2022-08-03T07:48:16.707Z,7.50
2022-08-03T07:50:43.879Z,7.70
2022-08-03T07:53:10.893Z,7.70
2022-08-03T07:55:38.503Z,7.20
2022-08-03T07:58:09.304Z,8.30
2022-08-03T08:00:36.547Z,7.20
2022-08-03T08:03:04.211Z,8.20
2022-08-03T08:05:31.201Z,7.40
2022-08-03T08:07:58.004Z,7.20
2022-08-03T08:10:27.844Z,7.50
2022-08-03T08:12:55.035Z,7.20
2022-08-03T08:15:22.246Z,7.00
2022-08-03T08:17:54.670Z,8.10
2022-08-03T08:20:28.273Z,8.00
2022-08-03T08:23:02.843Z,7.90
2022-08-03T08:25:31.900Z,8.00
2022-08-03T08:28:29.507Z,7.20
2022-08-03T08:30:54.252Z,7.90
2022-08-03T08:33:25.775Z,8.10
2022-08-03T08:35:53.262Z,9.00
2022-08-03T08:38:20.958Z,8.60
2022-08-03T08:40:49.668Z,8.60
2022-08-03T08:43:16.417Z,8.90
2022-08-03T08:45:44.610Z,8.30
2022-08-03T08:48:13.927Z,8.70
2022-08-03T08:50:41.098Z,7.30
2022-08-03T08:53:17.508Z,7.80
2022-08-03T08:55:58.698Z,7.80
2022-08-03T08:58:36.387Z,8.40
2022-08-03T09:01:04.121Z,7.60
2022-08-03T09:03:33.766Z,7.50
2022-08-03T09:06:01.843Z,8.10
2022-08-03T09:08:30.322Z,8.00
2022-08-03T09:10:57.887Z,8.40
2022-08-03T09:13:25.104Z,8.40
2022-08-03T09:16:11.615Z,7.80
2022-08-03T09:18:39.247Z,7.50
2022-08-03T09:21:36.757Z,8.20
2022-08-03T09:24:08.624Z,8.20
2022-08-03T09:26:53.845Z,8.80
2022-08-03T09:29:22.177Z,8.70
2022-08-03T09:31:49.067Z,8.20
2022-08-03T09:34:17.447Z,7.70
2022-08-03T09:36:50.787Z,8.00
2022-08-03T09:39:18.748Z,8.30
2022-08-03T09:41:48.977Z,8.90
2022-08-03T09:44:24.815Z,8.00
2022-08-03T09:46:55.696Z,7.20
2022-08-03T09:49:23.210Z,6.30
2022-08-03T09:52:32.933Z,6.60
2022-08-03T09:54:41.170Z,7.50
2022-08-03T09:57:08.445Z,8.00
2022-08-03T09:59:35.244Z,7.30
2022-08-03T10:02:21.588Z,7.60
2022-08-03T10:04:50.492Z,9.30
2022-08-03T10:07:17.537Z,7.50
2022-08-03T10:10:30.137Z,8.10
2022-08-03T10:12:50.065Z,7.60
2022-08-03T10:16:20.310Z,8.30
2022-08-03T10:18:04.117Z,8.00
2022-08-03T10:20:36.273Z,7.70
2022-08-03T10:23:05.363Z,7.20
2022-08-03T10:25:34.111Z,7.10
2022-08-03T10:28:05.415Z,6.50
2022-08-03T10:30:33.257Z,6.40
2022-08-03T10:33:51.417Z,6.30
2022-08-03T10:36:15.977Z,5.90
2022-08-03T10:38:54.602Z,5.70
2022-08-03T10:41:25.531Z,6.20
2022-08-03T10:44:04.598Z,6.20
2022-08-03T10:46:33.588Z,5.80
2022-08-03T10:49:00.949Z,5.60
2022-08-03T10:51:31.460Z,6.00
2022-08-03T10:53:59.356Z,5.70
2022-08-03T10:56:50.568Z,6.60
2022-08-03T10:59:46.088Z,6.10
2022-08-03T11:02:14.510Z,6.20
2022-08-03T11:04:44.311Z,6.70
2022-08-03T11:07:22.668Z,4.50
2022-08-03T11:09:52.950Z,4.20
2022-08-03T11:12:30.003Z,4.00
2022-08-03T11:15:09.973Z,3.90
2022-08-03T11:17:46.717Z,3.90
2022-08-03T11:20:54.207Z,3.80
2022-08-03T11:24:05.336Z,4.30
2022-08-03T11:26:32.353Z,4.20
2022-08-03T11:29:28.083Z,3.90
2022-08-03T11:31:54.947Z,4.40
2022-08-03T11:34:21.725Z,3.60
2022-08-03T11:37:21.400Z,3.30
2022-08-03T11:39:50.946Z,3.50
2022-08-03T11:42:23.745Z,3.70
2022-08-03T11:44:51.905Z,3.50
2022-08-03T11:47:20.508Z,3.80
2022-08-03T11:49:48.886Z,4.10
2022-08-03T11:52:17.224Z,3.60
2022-08-03T11:54:44.978Z,3.20
2022-08-03T11:57:11.836Z,3.80
2022-08-03T11:59:38.932Z,4.00
2022-08-03T12:02:07.522Z,3.90
2022-08-03T12:04:59.675Z,4.00
2022-08-03T12:08:04.049Z,4.10
2022-08-03T12:10:15.479Z,3.80
2022-08-03T12:12:46.438Z,4.00
2022-08-03T12:15:13.473Z,3.70
2022-08-03T12:17:41.428Z,3.60
2022-08-03T12:20:09.997Z,3.60
2022-08-03T12:22:39.699Z,3.30
2022-08-03T12:25:08.579Z,3.80
2022-08-03T12:27:36.345Z,3.30
2022-08-03T12:30:03.843Z,3.80
2022-08-03T12:32:30.903Z,3.60
2022-08-03T12:35:03.924Z,3.50
2022-08-03T12:37:31.666Z,3.00
2022-08-03T12:40:05.254Z,3.60
2022-08-03T12:42:38.290Z,3.60
2022-08-03T12:45:24.376Z,3.20
2022-08-03T12:47:55.822Z,3.30
2022-08-03T12:50:33.898Z,2.90
2022-08-03T12:53:03.932Z,2.80
2022-08-03T12:55:56.231Z,3.20
2022-08-03T12:58:35.530Z,2.90
2022-08-03T13:01:04.852Z,3.10
2022-08-03T13:03:50.267Z,3.20
2022-08-03T13:06:26.939Z,3.00
2022-08-03T13:09:03.355Z,3.20
2022-08-03T13:11:57.912Z,3.40
2022-08-03T13:14:19.652Z,3.30
2022-08-03T13:16:49.990Z,3.30
2022-08-03T13:19:16.986Z,4.20
2022-08-03T13:22:01.824Z,3.90
2022-08-03T13:24:32.999Z,3.40
2022-08-03T13:27:22.058Z,3.30
2022-08-03T13:29:49.300Z,3.70
2022-08-03T13:32:16.234Z,3.30
2022-08-03T13:34:43.526Z,3.70
2022-08-03T13:37:11.549Z,3.60
2022-08-03T13:39:58.175Z,3.50
2022-08-03T13:42:27.845Z,3.20
2022-08-03T13:44:54.458Z,3.40
2022-08-03T13:47:21.581Z,3.50
2022-08-03T13:49:59.848Z,3.20
2022-08-03T13:52:27.890Z,3.60
2022-08-03T13:54:54.800Z,3.10
2022-08-03T13:58:02.349Z,3.50
2022-08-03T14:00:13.258Z,3.30
2022-08-03T14:02:55.341Z,3.70
2022-08-03T14:05:25.188Z,2.90
2022-08-03T14:07:51.984Z,2.80
2022-08-03T14:10:23.741Z,3.60
2022-08-03T14:12:50.600Z,3.00
2022-08-03T14:15:17.733Z,3.30
2022-08-03T14:17:49.907Z,3.40
2022-08-03T14:20:36.537Z,2.90
2022-08-03T14:23:04.493Z,3.30
2022-08-03T14:25:31.466Z,3.20
2022-08-03T14:28:10.355Z,3.50
2022-08-03T14:30:37.383Z,3.60
2022-08-03T14:33:04.264Z,3.20
2022-08-03T14:35:31.314Z,3.20
2022-08-03T14:37:58.067Z,3.80
2022-08-03T14:40:24.931Z,3.70
2022-08-03T14:42:51.788Z,3.30
2022-08-03T14:45:20.179Z,2.90
2022-08-03T14:50:30.829Z,3.60
2022-08-03T14:50:42.072Z,3.30
2022-08-03T14:53:13.239Z,3.60
2022-08-03T14:55:50.607Z,3.30
2022-08-03T14:58:23.193Z,3.30
2022-08-03T15:00:51.492Z,3.90
2022-08-03T15:03:22.736Z,3.50
2022-08-03T15:05:54.436Z,3.90
2022-08-03T15:08:22.764Z,4.00
2022-08-03T15:10:49.960Z,3.80
2022-08-03T15:13:18.802Z,3.30
2022-08-03T15:15:47.748Z,3.90
2022-08-03T15:18:14.680Z,4.10
2022-08-03T15:20:46.222Z,3.30
2022-08-03T15:23:14.854Z,3.80
2022-08-03T15:26:28.423Z,4.70
2022-08-03T15:28:30.449Z,3.90
2022-08-03T15:30:57.305Z,4.00
2022-08-03T15:33:23.993Z,3.90
2022-08-03T15:35:51.252Z,4.10
2022-08-03T15:38:18.432Z,4.20
2022-08-03T15:40:45.349Z,3.80
2022-08-03T15:43:12.827Z,4.00
2022-08-03T15:45:42.027Z,4.10
2022-08-03T15:48:08.971Z,4.50
2022-08-03T15:50:35.929Z,4.20
2022-08-03T15:53:03.000Z,4.70
2022-08-03T15:55:30.857Z,4.50
2022-08-03T15:59:09.526Z,3.80
2022-08-03T16:00:44.921Z,4.50
2022-08-03T16:03:11.606Z,4.10
2022-08-03T16:05:38.536Z,4.20
2022-08-03T16:08:10.265Z,4.30
2022-08-03T16:10:40.481Z,4.50
2022-08-03T16:13:08.027Z,3.70
2022-08-03T16:15:38.377Z,4.00
2022-08-03T16:18:06.516Z,4.20
2022-08-03T16:20:35.097Z,4.30
2022-08-03T16:23:11.264Z,4.10
2022-08-03T16:25:49.170Z,4.30
2022-08-03T16:28:17.303Z,4.90
2022-08-03T16:30:46.263Z,4.10
2022-08-03T16:33:17.312Z,4.70
2022-08-03T16:35:46.086Z,4.90
2022-08-03T16:38:16.735Z,4.60
2022-08-03T16:40:51.034Z,4.20
2022-08-03T16:43:24.433Z,4.00
2022-08-03T16:45:51.765Z,4.20
2022-08-03T16:48:19.094Z,5.00
2022-08-03T16:50:46.766Z,4.60
2022-08-03T16:53:16.499Z,4.40
2022-08-03T16:55:53.079Z,5.10
2022-08-03T16:58:24.312Z,5.00
2022-08-03T17:01:06.420Z,5.80
2022-08-03T17:03:42.612Z,5.60
2022-08-03T17:06:33.846Z,4.70
2022-08-03T17:09:09.186Z,4.70
2022-08-03T17:11:46.621Z,4.90
2022-08-03T17:14:23.291Z,4.70
2022-08-03T17:17:00.468Z,5.50
2022-08-03T17:19:30.171Z,4.90
2022-08-03T17:22:17.119Z,5.40
2022-08-03T17:24:52.052Z,5.40
2022-08-03T17:28:48.216Z,5.60
2022-08-03T17:30:15.311Z,5.20
2022-08-03T17:32:53.520Z,5.50
2022-08-03T17:35:34.527Z,7.00
2022-08-03T17:38:06.649Z,9.10
2022-08-03T17:40:34.609Z,10.10
2022-08-03T17:44:14.377Z,10.00
2022-08-03T17:45:52.692Z,9.50
2022-08-03T17:48:24.851Z,7.40
2022-08-03T17:51:10.805Z,8.10
2022-08-03T17:54:05.425Z,7.30
2022-08-03T17:56:46.609Z,7.60
2022-08-03T17:59:50.630Z,8.40
2022-08-03T18:02:35.494Z,9.80
2022-08-03T18:05:15.939Z,13.50
2022-08-03T18:07:46.875Z,12.30
2022-08-03T18:10:22.357Z,8.20
2022-08-03T18:13:02.460Z,14.30
2022-08-03T18:15:36.850Z,31.30
2022-08-03T18:18:10.509Z,57.30
2022-08-03T18:20:42.078Z,83.70
2022-08-03T18:23:24.605Z,54.50
2022-08-03T18:25:58.224Z,56.30
2022-08-03T18:28:27.192Z,33.70
2022-08-03T18:30:55.251Z,33.90
2022-08-03T18:34:16.629Z,19.70
2022-08-03T18:36:30.890Z,12.80
2022-08-03T18:39:00.277Z,14.00
2022-08-03T18:41:34.737Z,10.10
2022-08-03T18:44:08.394Z,11.60
2022-08-03T18:47:22.651Z,10.60
2022-08-03T18:50:04.811Z,9.00
2022-08-03T18:52:52.979Z,9.50
2022-08-03T18:55:32.897Z,8.90
2022-08-03T18:58:17.623Z,8.50
2022-08-03T19:01:03.545Z,8.90
2022-08-03T19:03:43.188Z,9.10
2022-08-03T19:06:26.351Z,7.80
2022-08-03T19:09:07.260Z,9.20
2022-08-03T19:12:14.559Z,9.60
2022-08-03T19:14:34.364Z,9.70
2022-08-03T19:17:07.272Z,10.00
2022-08-03T19:19:43.315Z,9.80
2022-08-03T19:22:16.002Z,10.00
2022-08-03T19:24:45.679Z,10.40
2022-08-03T19:27:13.273Z,10.70
2022-08-03T19:29:57.987Z,9.70
2022-08-03T19:32:29.108Z,10.70
2022-08-03T19:34:59.482Z,11.80
2022-08-03T19:37:38.454Z,11.10
2022-08-03T19:40:12.465Z,10.10
2022-08-03T19:42:44.752Z,10.50
2022-08-03T19:45:18.359Z,10.60
2022-08-03T19:47:51.042Z,10.90
2022-08-03T19:50:20.252Z,11.00
2022-08-03T19:52:49.674Z,10.30
2022-08-03T19:55:17.805Z,10.80
2022-08-03T19:57:49.236Z,10.70
2022-08-03T20:00:18.922Z,10.70
2022-08-03T20:02:45.679Z,11.80
2022-08-03T20:05:15.376Z,11.00
2022-08-03T20:07:47.799Z,11.90
2022-08-03T20:10:17.287Z,10.40
2022-08-03T20:12:49.422Z,11.20
2022-08-03T20:15:22.520Z,10.50
2022-08-03T20:17:59.085Z,10.40
2022-08-03T20:20:30.103Z,11.50
2022-08-03T20:22:59.666Z,10.80
2022-08-03T20:25:39.321Z,10.90
2022-08-03T20:28:26.693Z,11.20
2022-08-03T20:30:54.699Z,12.70
2022-08-03T20:33:27.950Z,11.90
2022-08-03T20:36:10.392Z,12.40
2022-08-03T20:38:43.641Z,12.10
2022-08-03T20:41:15.957Z,12.30
2022-08-03T20:43:43.104Z,12.00
2022-08-03T20:46:30.953Z,11.30
2022-08-03T20:48:58.817Z,12.20
2022-08-03T20:51:50.550Z,11.90
2022-08-03T20:54:22.505Z,11.80
2022-08-03T20:56:56.794Z,11.90
2022-08-03T20:59:28.260Z,11.90
2022-08-03T21:01:57.144Z,12.20
2022-08-03T21:04:24.220Z,11.90
2022-08-03T21:06:57.997Z,11.70
2022-08-03T21:09:33.334Z,11.80
2022-08-03T21:12:12.305Z,12.70
2022-08-03T21:17:38.358Z,11.40
2022-08-03T21:20:08.978Z,10.90
2022-08-03T21:22:37.606Z,10.90
2022-08-03T21:25:08.601Z,11.40
2022-08-03T21:27:36.242Z,10.80
2022-08-03T21:30:08.128Z,11.30
2022-08-03T21:32:35.742Z,12.00
2022-08-03T21:35:02.443Z,11.40
2022-08-03T21:37:29.308Z,12.10
2022-08-03T21:39:56.223Z,11.10
2022-08-03T21:42:23.850Z,10.30
2022-08-03T21:44:51.641Z,10.90
2022-08-03T21:47:23.224Z,11.10
2022-08-03T21:50:06.687Z,10.90
2022-08-03T21:52:43.052Z,10.60
2022-08-03T21:55:20.520Z,10.60
2022-08-03T21:57:53.348Z,10.60
2022-08-03T22:00:24.957Z,10.20
2022-08-03T22:02:55.735Z,11.00
2022-08-03T22:05:42.832Z,11.00
2022-08-03T22:08:12.996Z,11.10
2022-08-03T22:10:43.254Z,9.50
2022-08-03T22:13:12.364Z,10.50
2022-08-03T22:15:39.674Z,10.20
2022-08-03T22:18:06.452Z,10.30
2022-08-03T22:20:33.588Z,11.20
2022-08-03T22:23:03.467Z,10.70
2022-08-03T22:25:33.980Z,9.00
2022-08-03T22:28:08.358Z,10.20
2022-08-03T22:30:35.533Z,9.80
2022-08-03T22:33:05.802Z,9.70
2022-08-03T22:35:47.736Z,9.20
2022-08-03T22:38:16.871Z,9.40
2022-08-03T22:40:46.579Z,10.10
2022-08-03T22:43:13.532Z,9.10
2022-08-03T22:46:06.876Z,9.70
2022-08-03T22:48:33.846Z,9.30
2022-08-03T22:51:04.468Z,9.30
2022-08-03T22:53:31.673Z,9.10
2022-08-03T22:55:59.174Z,9.40
2022-08-03T22:58:25.862Z,9.50
2022-08-03T23:00:56.019Z,9.70
2022-08-03T23:04:00.204Z,9.10
2022-08-03T23:06:21.074Z,9.40
2022-08-03T23:08:50.540Z,8.70
2022-08-03T23:11:18.292Z,9.90
2022-08-03T23:13:51.757Z,9.20
2022-08-03T23:16:28.528Z,8.80
2022-08-03T23:18:58.878Z,9.60
2022-08-03T23:21:53.289Z,8.40
2022-08-03T23:24:29.459Z,8.10
2022-08-03T23:26:58.406Z,8.80
2022-08-03T23:29:28.541Z,8.80
2022-08-03T23:31:55.965Z,9.40
2022-08-03T23:34:41.916Z,8.50
2022-08-03T23:37:09.049Z,8.40
2022-08-03T23:39:37.193Z,8.20
2022-08-03T23:42:05.599Z,8.60
2022-08-03T23:44:36.186Z,8.50
2022-08-03T23:47:02.934Z,8.80
2022-08-03T23:49:29.605Z,8.10
2022-08-03T23:51:59.174Z,8.50
2022-08-03T23:54:37.169Z,8.10
2022-08-03T23:57:34.479Z,8.30
